Time;durP1;ratioP1;P1;durP2;ratioP2;P2;SDS_P1;SDS_P2;PMS_P1;PMS_P2;Temp;Humidity;BMP_temperature;BMP_pressure;BME280_temperature;BME280_humidity;BME280_pressure;Samples;Min_cycle;Max_cycle;Signal;HPM_P1;HPM_P2
2021/10/23 08:57:07;;;;;;;;;;;;;;;8.40;100.00;100519.09;5059070;28;19975;-67
2021/10/23 08:59:33;;;;;;;;;;;;;;;8.38;100.00;100476.28;5031114;27;20438;-67
2021/10/23 09:01:59;;;;;;;;;;;;;;;8.62;100.00;100437.81;5039675;28;19973;-66
2021/10/23 09:04:27;;;;;;;;;;;;;;;8.66;100.00;100399.28;5028491;27;19917;-67
2021/10/23 09:06:53;;;;;;;;;;;;;;;8.91;100.00;100363.25;5027293;27;20387;-67
2021/10/23 09:09:18;;;;;;;;;;;;;;;8.92;100.00;100329.88;5027952;27;19921;-67
2021/10/23 09:11:47;;;;;;;;;;;;;;;9.79;100.00;100319.94;5027449;27;19921;-67
2021/10/23 09:14:34;;;;;;;;;;;;;;;9.17;100.00;100288.66;5020485;28;20475;-67
2021/10/23 09:17:11;;;;;;;;;;;;;;;9.15;100.00;100268.09;5026671;28;19921;-66
2021/10/23 09:19:44;;;;;;;;;;;;;;;9.39;100.00;100261.91;5019538;28;19925;-66
2021/10/23 09:22:22;;;;;;;;;;;;;;;9.35;100.00;100257.69;5028108;27;19929;-66
2021/10/23 09:24:47;;;;;;;;;;;;;;;9.47;100.00;100256.75;5042887;28;19939;-66
2021/10/23 09:27:15;;;;;;;;;;;;;;;9.28;100.00;100248.28;5022063;28;19921;-66
2021/10/23 09:29:41;;;;;;;;;;;;;;;9.44;100.00;100249.03;5041467;28;19921;-66
2021/10/23 09:32:08;;;;;;;;;;;;;;;9.43;100.00;100239.63;5019982;28;19928;-68
2021/10/23 09:34:33;;;;;;;;;;;;;;;9.59;100.00;100248.91;5020124;28;20401;-67
2021/10/23 09:37:02;;;;;;;;;;;;;;;9.70;100.00;100243.69;5023670;28;19926;-67
2021/10/23 09:39:28;;;;;;;;;;;;;;;9.49;100.00;100243.84;5026465;28;19929;-67
2021/10/23 09:42:02;;;;;;;;;;;;;;;9.50;100.00;100251.56;5058226;28;19925;-67
2021/10/23 09:44:28;;;;;;;;;;;;;;;9.17;100.00;100253.50;5058641;27;19920;-67
2021/10/23 09:46:54;;;;;;;;;;;;;;;9.36;100.00;100253.38;5002442;28;20086;-66
2021/10/23 09:49:21;;;;;;;;;;;;;;;9.48;100.00;100255.88;5020798;27;19935;-66
2021/10/23 09:51:46;;;;;;;;;;;;;;;9.42;100.00;100261.91;5074746;27;19925;-67
2021/10/23 09:54:15;;;;;;;;;;;;;;;9.71;100.00;100265.13;5020123;28;20214;-67
2021/10/23 09:56:41;;;;;;;;;;;;;;;9.57;100.00;100263.50;5033072;27;19976;-67
2021/10/23 09:59:07;;;;;;;;;;;;;;;10.00;100.00;100262.31;5007082;28;20406;-67
2021/10/23 10:01:40;;;;;;;;;;;;;;;10.11;100.00;100265.63;5073045;27;20019;-67
2021/10/23 10:04:06;;;;;;;;;;;;;;;9.62;100.00;100272.06;5026846;28;20429;-67
2021/10/23 10:06:33;;;;;;;;;;;;;;;10.48;100.00;100275.56;5031458;28;19948;-67
2021/10/23 10:08:59;;;;;;;;;;;;;;;9.93;100.00;100276.09;5021402;28;19932;-67
2021/10/23 10:11:24;;;;;;;;;;;;;;;10.08;100.00;100282.81;5044903;28;19921;-67
2021/10/23 10:13:50;;;;;;;;;;;;;;;10.22;100.00;100288.69;5012245;28;19996;-67
2021/10/23 10:16:15;;;;;;;;;;;;;;;10.31;100.00;100298.94;4997249;28;20371;-67
2021/10/23 10:18:41;;;;;;;;;;;;;;;9.87;100.00;100305.28;5014899;28;19917;-67
2021/10/23 10:21:11;;;;;;;;;;;;;;;10.52;100.00;100302.16;5011702;28;19924;-67
2021/10/23 10:23:40;;;;;;;;;;;;;;;9.97;100.00;100294.06;4992434;28;19917;-67
2021/10/23 10:26:21;;;;;;;;;;;;;;;10.08;100.00;100281.09;4989532;28;20008;-67
2021/10/23 10:31:55;;;;;;;;;;;;;;;10.50;100.00;100288.44;5012614;28;20016;-66
2021/10/23 10:42:50;;;;;;;;;;;;;;;10.48;100.00;100291.03;5014506;28;20374;-67
2021/10/23 10:45:22;;;;;;;;;;;;;;;10.52;100.00;100286.69;5003340;28;19924;-67
2021/10/23 10:48:06;;;;;;;;;;;;;;;10.09;100.00;100281.94;5042688;28;20390;-67
2021/10/23 10:50:35;;;;;;;;;;;;;;;10.25;100.00;100284.34;5019810;28;19917;-67
2021/10/23 10:53:14;;;;;;;;;;;;;;;10.43;100.00;100274.78;4988543;28;20302;-67
2021/10/23 10:55:41;;;;;;;;;;;;;;;10.21;100.00;100271.53;4995889;28;19974;-68
2021/10/23 10:58:09;;;;;;;;;;;;;;;10.38;100.00;100271.41;4986190;28;19928;-68
2021/10/23 11:00:46;;;;;;;;;;;;;;;10.36;100.00;100266.25;5018818;28;19921;-67
2021/10/23 11:03:31;;;;;;;;;;;;;;;9.89;100.00;100249.53;5019580;27;20417;-67
2021/10/23 11:05:57;;;;;;;;;;;;;;;10.33;100.00;100244.81;5019665;27;19924;-67
2021/10/23 11:08:24;;;;;;;;;;;;;;;10.40;100.00;100239.59;5019605;28;19932;-67
2021/10/23 11:10:53;;;;;;;;;;;;;;;10.64;100.00;100233.28;4990825;28;19929;-67
2021/10/23 11:13:28;;;;;;;;;;;;;;;10.48;100.00;100233.50;5015014;28;19939;-63
2021/10/23 11:15:53;;;;;;;;;;;;;;;10.29;100.00;100228.56;5015550;28;19943;-63
2021/10/23 11:18:20;;;;;;;;;;;;;;;10.73;100.00;100234.91;5012510;28;19913;-63
2021/10/23 11:20:45;;;;;;;;;;;;;;;10.18;100.00;100227.81;5019410;28;19956;-63
2021/10/23 11:23:31;;;;;;;;;;;;;;;10.25;100.00;100225.13;5028127;28;19990;-67
2021/10/23 11:25:57;;;;;;;;;;;;;;;9.97;100.00;100232.31;5012386;28;19961;-62
2021/10/23 11:28:22;;;;;;;;;;;;;;;10.35;100.00;100220.75;5024147;28;19921;-67
2021/10/23 11:30:49;;;;;;;;;;;;;;;11.77;100.00;100218.72;5022985;28;19917;-67
2021/10/23 11:33:17;;;;;;;;;;;;;;;11.50;100.00;100210.59;5017852;28;20286;-64
2021/10/23 11:35:45;;;;;;;;;;;;;;;11.57;100.00;100198.44;5014538;28;19925;-64
2021/10/23 11:38:13;;;;;;;;;;;;;;;11.64;100.00;100205.22;5039040;28;19956;-64
2021/10/23 11:40:40;;;;;;;;;;;;;;;11.10;100.00;100199.16;5019704;28;20374;-64
2021/10/23 11:43:05;;;;;;;;;;;;;;;11.00;100.00;100197.59;5008109;28;19948;-64
2021/10/23 11:45:32;;;;;;;;;;;;;;;11.56;100.00;100202.72;5009081;28;20393;-65
2021/10/23 11:47:58;;;;;;;;;;;;;;;11.48;100.00;100200.28;5009624;28;19917;-66
2021/10/23 11:50:24;;;;;;;;;;;;;;;11.76;100.00;100188.66;5013934;28;19917;-66
2021/10/23 11:52:57;;;;;;;;;;;;;;;12.61;100.00;100190.47;5008306;28;19921;-66
2021/10/23 11:55:30;;;;;;;;;;;;;;;12.39;100.00;100190.94;5042301;28;19959;-66
2021/10/23 11:57:56;;;;;;;;;;;;;;;12.74;100.00;100186.75;5012686;28;19922;-65
2021/10/23 12:00:22;;;;;;;;;;;;;;;12.28;100.00;100188.56;5008799;28;19914;-67
2021/10/23 12:02:59;;;;;;;;;;;;;;;11.21;100.00;100191.25;5013625;28;20478;-67
2021/10/23 12:05:25;;;;;;;;;;;;;;;11.49;100.00;100193.41;5021141;28;19913;-66
2021/10/23 12:08:09;;;;;;;;;;;;;;;11.58;100.00;100200.13;5049341;28;19996;-66
2021/10/23 12:10:47;;;;;;;;;;;;;;;11.49;100.00;100190.81;5012330;28;20441;-66
2021/10/23 12:13:13;;;;;;;;;;;;;;;12.63;100.00;100188.69;5031549;28;19913;-67
2021/10/23 12:15:38;;;;;;;;;;;;;;;11.47;100.00;100198.59;5004524;28;19921;-67
2021/10/23 12:18:05;;;;;;;;;;;;;;;11.78;100.00;100199.81;5028488;28;19962;-67
2021/10/23 12:20:35;;;;;;;;;;;;;;;12.94;100.00;100194.91;5019864;28;20530;-67
2021/10/23 12:23:01;;;;;;;;;;;;;;;13.26;100.00;100189.88;4988250;28;20404;-67
2021/10/23 12:25:30;;;;;;;;;;;;;;;12.38;100.00;100181.47;4986343;28;20012;-68
2021/10/23 12:28:00;;;;;;;;;;;;;;;12.45;100.00;100174.44;5010724;28;19917;-67
2021/10/23 12:30:25;;;;;;;;;;;;;;;12.00;100.00;100174.50;5000984;28;19995;-67
2021/10/23 12:32:51;;;;;;;;;;;;;;;11.82;100.00;100173.06;5010345;28;19917;-67
2021/10/23 12:35:20;;;;;;;;;;;;;;;12.05;100.00;100176.09;5009716;28;19928;-67
2021/10/23 12:37:46;;;;;;;;;;;;;;;13.44;100.00;100173.09;5001783;28;19920;-67
2021/10/23 12:40:12;;;;;;;;;;;;;;;12.82;100.00;100176.22;5003250;28;19917;-67
2021/10/23 12:42:45;;;;;;;;;;;;;;;13.87;100.00;100172.00;5011013;28;19917;-67
2021/10/23 12:45:11;;;;;;;;;;;;;;;12.27;100.00;100165.31;5038907;28;19914;-63
2021/10/23 12:47:37;;;;;;;;;;;;;;;12.20;100.00;100172.38;5011068;28;19925;-67
2021/10/23 12:50:03;;;;;;;;;;;;;;;13.01;100.00;100166.31;5002968;28;19921;-67
2021/10/23 12:52:28;;;;;;;;;;;;;;;12.83;100.00;100165.84;5021710;28;20366;-67
2021/10/23 12:54:53;;;;;;;;;;;;;;;12.16;100.00;100165.56;5004408;28;19924;-64
2021/10/23 12:57:19;;;;;;;;;;;;;;;11.46;100.00;100170.25;5010445;28;19917;-65
2021/10/23 12:59:44;;;;;;;;;;;;;;;11.45;100.00;100173.72;5011927;28;19928;-66
2021/10/23 13:02:10;;;;;;;;;;;;;;;11.56;100.00;100171.78;5009154;28;19917;-67
2021/10/23 13:04:35;;;;;;;;;;;;;;;12.40;100.00;100171.94;5011624;28;19917;-67
2021/10/23 13:07:00;;;;;;;;;;;;;;;12.23;100.00;100171.47;5014143;27;20492;-67
2021/10/23 13:09:26;;;;;;;;;;;;;;;12.95;100.00;100165.59;4986240;28;20043;-67
2021/10/23 13:11:51;;;;;;;;;;;;;;;11.99;100.00;100158.13;5017062;28;19928;-66
2021/10/23 13:14:18;;;;;;;;;;;;;;;11.26;100.00;100168.81;5010025;28;20351;-65
2021/10/23 13:16:44;;;;;;;;;;;;;;;11.24;100.00;100173.19;5027442;27;20002;-66
2021/10/23 13:19:09;;;;;;;;;;;;;;;11.44;100.00;100167.69;5002167;28;19978;-66
2021/10/23 13:21:35;;;;;;;;;;;;;;;12.65;100.00;100171.44;5007682;28;19928;-66
2021/10/23 13:24:00;;;;;;;;;;;;;;;12.00;100.00;100166.75;5010129;28;19923;-66
2021/10/23 13:26:25;;;;;;;;;;;;;;;12.19;100.00;100167.22;5010083;28;19925;-68
2021/10/23 13:28:51;;;;;;;;;;;;;;;12.60;100.00;100157.78;5008489;28;19924;-68
2021/10/23 13:31:18;;;;;;;;;;;;;;;12.53;100.00;100152.72;5018651;28;19921;-68
2021/10/23 13:33:43;;;;;;;;;;;;;;;11.66;100.00;100163.00;5008808;28;19918;-68
2021/10/23 13:36:09;;;;;;;;;;;;;;;11.51;100.00;100152.94;5010782;28;19925;-68
2021/10/23 13:38:34;;;;;;;;;;;;;;;11.55;100.00;100148.59;5025747;28;19933;-68
2021/10/23 13:41:00;;;;;;;;;;;;;;;11.54;100.00;100149.47;5010120;28;19970;-68
2021/10/23 13:43:25;;;;;;;;;;;;;;;12.03;100.00;100149.44;5013297;28;20405;-66
2021/10/23 13:45:51;;;;;;;;;;;;;;;11.92;100.00;100159.13;5047292;28;20291;-66
2021/10/23 13:48:16;;;;;;;;;;;;;;;11.54;100.00;100162.38;5010241;28;19941;-67
2021/10/23 13:50:41;;;;;;;;;;;;;;;12.10;100.00;100169.09;4990613;28;19917;-67
2021/10/23 13:53:07;;;;;;;;;;;;;;;12.00;100.00;100157.25;5014788;28;19992;-68
2021/10/23 13:55:32;;;;;;;;;;;;;;;11.69;100.00;100162.94;5015833;28;20597;-67
2021/10/23 13:57:58;;;;;;;;;;;;;;;11.41;100.00;100164.31;5006790;28;19917;-68
2021/10/23 14:00:23;;;;;;;;;;;;;;;12.38;100.00;100163.38;5013104;28;20297;-67
2021/10/23 14:02:49;;;;;;;;;;;;;;;12.56;100.00;100167.31;5016666;28;19921;-67
2021/10/23 14:05:14;;;;;;;;;;;;;;;12.14;100.00;100160.41;5007758;28;19924;-67
2021/10/23 14:07:40;;;;;;;;;;;;;;;12.10;100.00;100169.09;5011848;28;19920;-67
2021/10/23 14:10:06;;;;;;;;;;;;;;;12.22;100.00;100173.16;5012474;28;20012;-67
2021/10/23 14:12:31;;;;;;;;;;;;;;;11.75;100.00;100171.47;5027814;28;19918;-67
2021/10/23 14:14:57;;;;;;;;;;;;;;;12.24;100.00;100175.72;5023577;28;20293;-67
2021/10/23 14:17:23;;;;;;;;;;;;;;;11.87;100.00;100166.97;5028276;28;19921;-68
2021/10/23 14:19:48;;;;;;;;;;;;;;;11.91;100.00;100181.50;5009495;28;20066;-67
2021/10/23 14:22:17;;;;;;;;;;;;;;;12.36;100.00;100175.47;5012938;28;19941;-67
2021/10/23 14:24:43;;;;;;;;;;;;;;;11.67;100.00;100180.19;5023382;28;20375;-67
2021/10/23 14:27:13;;;;;;;;;;;;;;;11.85;100.00;100179.00;5048298;28;19917;-68
2021/10/23 14:29:39;;;;;;;;;;;;;;;11.43;100.00;100183.22;5006878;28;20378;-67
2021/10/23 14:32:04;;;;;;;;;;;;;;;11.31;100.00;100184.22;5021763;28;19928;-67
2021/10/23 14:34:30;;;;;;;;;;;;;;;11.28;100.00;100182.56;4991375;28;19924;-67
2021/10/23 14:36:55;;;;;;;;;;;;;;;11.83;100.00;100180.75;5044006;28;19969;-66
2021/10/23 14:39:21;;;;;;;;;;;;;;;12.23;100.00;100185.22;5013679;28;19918;-67
2021/10/23 14:41:46;;;;;;;;;;;;;;;11.53;100.00;100182.16;5050752;28;20000;-64
2021/10/23 14:44:12;;;;;;;;;;;;;;;11.80;100.00;100182.56;5024482;28;19913;-64
2021/10/23 14:46:37;;;;;;;;;;;;;;;12.46;100.00;100187.31;5034252;28;19913;-67
2021/10/23 14:49:03;;;;;;;;;;;;;;;12.02;100.00;100186.50;5006871;28;20367;-67
2021/10/23 14:51:28;;;;;;;;;;;;;;;11.87;100.00;100182.44;5012915;28;20014;-67
2021/10/23 14:53:54;;;;;;;;;;;;;;;11.89;100.00;100179.84;5013239;28;19917;-67
2021/10/23 14:56:20;;;;;;;;;;;;;;;12.02;100.00;100186.50;5013663;28;20058;-67
2021/10/23 14:58:45;;;;;;;;;;;;;;;11.67;100.00;100179.34;5045508;28;20411;-67
2021/10/23 15:01:11;;;;;;;;;;;;;;;11.62;100.00;100187.16;4989301;28;20447;-67
2021/10/23 15:03:36;;;;;;;;;;;;;;;11.40;100.00;100194.41;4990581;28;19923;-67
2021/10/23 15:06:02;;;;;;;;;;;;;;;12.06;100.00;100195.84;5022316;28;19921;-67
2021/10/23 15:08:27;;;;;;;;;;;;;;;11.51;100.00;100189.06;5012129;28;19920;-63
2021/10/23 15:10:54;;;;;;;;;;;;;;;11.69;100.00;100193.91;5007339;28;19917;-63
2021/10/23 15:13:19;;;;;;;;;;;;;;;12.45;100.00;100189.94;5005557;28;19943;-64
2021/10/23 15:15:45;;;;;;;;;;;;;;;12.82;100.00;100190.03;5012883;28;19921;-64
2021/10/23 15:18:11;;;;;;;;;;;;;;;13.00;100.00;100187.88;5007440;28;20283;-66
2021/10/23 15:20:37;;;;;;;;;;;;;;;12.62;100.00;100187.84;5025677;28;19920;-66
2021/10/23 15:23:02;;;;;;;;;;;;;;;12.16;100.00;100193.09;5025542;28;19953;-66
2021/10/23 15:25:28;;;;;;;;;;;;;;;12.66;100.00;100193.81;5009461;28;19960;-66
2021/10/23 15:27:53;;;;;;;;;;;;;;;12.94;100.00;100194.91;5010003;28;20027;-64
2021/10/23 15:30:19;;;;;;;;;;;;;;;12.89;100.00;100190.72;5013819;28;19969;-67
2021/10/23 15:32:46;;;;;;;;;;;;;;;12.92;100.00;100186.31;4989408;28;19920;-67
2021/10/23 15:35:13;;;;;;;;;;;;;;;13.01;100.00;100194.78;5006065;28;20298;-67
2021/10/23 15:37:38;;;;;;;;;;;;;;;13.04;100.00;100199.88;5012910;28;20403;-67
2021/10/23 15:40:05;;;;;;;;;;;;;;;12.68;100.00;100197.19;5021440;28;19922;-67
2021/10/23 15:42:31;;;;;;;;;;;;;;;12.88;100.00;100197.63;5004856;28;19918;-67
2021/10/23 15:44:56;;;;;;;;;;;;;;;12.90;100.00;100195.00;5008276;28;20392;-68
2021/10/23 15:47:22;;;;;;;;;;;;;;;12.73;100.00;100190.22;5014089;28;19917;-66
2021/10/23 15:49:48;;;;;;;;;;;;;;;12.66;100.00;100192.09;5028548;28;19920;-66
2021/10/23 15:52:13;;;;;;;;;;;;;;;12.54;100.00;100193.19;5053419;28;20373;-67
2021/10/23 15:54:42;;;;;;;;;;;;;;;12.53;100.00;100193.22;5022152;28;19921;-67
2021/10/23 15:57:08;;;;;;;;;;;;;;;12.48;100.00;100198.50;5031758;28;19921;-66
2021/10/23 15:59:34;;;;;;;;;;;;;;;12.25;100.00;100203.28;5008689;28;19927;-66
2021/10/23 16:01:59;;;;;;;;;;;;;;;12.21;100.00;100206.78;5008853;28;19956;-66
2021/10/23 16:04:25;;;;;;;;;;;;;;;11.93;100.00;100204.72;4992086;28;19956;-66
2021/10/23 16:06:50;;;;;;;;;;;;;;;12.00;100.00;100208.91;5006555;28;19913;-64
2021/10/23 16:09:16;;;;;;;;;;;;;;;11.64;100.00;100208.63;4992881;28;20005;-63
2021/10/23 16:11:42;;;;;;;;;;;;;;;11.68;100.00;100212.88;4992919;28;20296;-63
2021/10/23 16:14:07;;;;;;;;;;;;;;;11.59;100.00;100214.75;5000046;28;19913;-65
2021/10/23 16:16:33;;;;;;;;;;;;;;;11.46;100.00;100211.53;5007263;28;20404;-63
2021/10/23 16:18:58;;;;;;;;;;;;;;;11.52;100.00;100221.75;4986156;28;20009;-64
2021/10/23 16:21:24;;;;;;;;;;;;;;;11.28;100.00;100222.97;4991722;28;19918;-64
2021/10/23 16:23:50;;;;;;;;;;;;;;;11.37;100.00;100224.56;5008012;28;19971;-63
2021/10/23 16:26:16;;;;;;;;;;;;;;;11.04;100.00;100224.19;5001315;28;19918;-64
2021/10/23 16:28:41;;;;;;;;;;;;;;;10.79;100.00;100232.25;4991057;28;19920;-64
2021/10/23 16:31:06;;;;;;;;;;;;;;;10.69;100.00;100235.81;5024730;28;20032;-64
2021/10/23 16:33:32;;;;;;;;;;;;;;;10.51;100.00;100233.47;4985484;28;19917;-64
2021/10/23 16:35:58;;;;;;;;;;;;;;;10.43;100.00;100239.56;5007226;28;20581;-67
2021/10/23 16:38:25;;;;;;;;;;;;;;;10.45;100.00;100240.41;4992108;28;20336;-67
2021/10/23 16:40:50;;;;;;;;;;;;;;;10.42;100.00;100240.44;4982260;28;20342;-67
2021/10/23 16:43:16;;;;;;;;;;;;;;;10.33;100.00;100240.56;4991656;28;19932;-67
2021/10/23 16:45:41;;;;;;;;;;;;;;;10.41;100.00;100246.44;4993595;28;20390;-67
2021/10/23 16:48:07;;;;;;;;;;;;;;;10.52;100.00;100242.91;5025558;28;20429;-67
2021/10/23 16:50:32;;;;;;;;;;;;;;;10.50;100.00;100244.66;4984363;28;19928;-67
2021/10/23 16:52:58;;;;;;;;;;;;;;;10.52;100.00;100250.63;5000859;28;19957;-68
2021/10/23 16:55:23;;;;;;;;;;;;;;;10.34;100.00;100244.81;5006775;28;19994;-68
2021/10/23 16:57:49;;;;;;;;;;;;;;;10.39;100.00;100245.59;5019711;27;19933;-69
2021/10/23 17:00:15;;;;;;;;;;;;;;;10.16;100.00;100248.41;4988161;28;19925;-68
2021/10/23 17:02:40;;;;;;;;;;;;;;;10.24;100.00;100248.31;4994170;28;20510;-69
2021/10/23 17:05:06;;;;;;;;;;;;;;;9.93;100.00;100251.22;5005385;28;19948;-68
2021/10/23 17:07:31;;;;;;;;;;;;;;;10.20;100.00;100255.22;5007147;28;19921;-69
2021/10/23 17:09:57;;;;;;;;;;;;;;;10.07;100.00;100247.66;5011356;28;19922;-68
2021/10/23 17:12:23;;;;;;;;;;;;;;;10.02;100.00;100251.13;4999803;28;19979;-69
2021/10/23 17:14:48;;;;;;;;;;;;;;;9.88;100.00;100247.84;4986872;28;20021;-68
2021/10/23 17:17:16;;;;;;;;;;;;;;;9.92;100.00;100258.94;5019464;28;19947;-66
2021/10/23 17:19:42;;;;;;;;;;;;;;;9.99;100.00;100258.88;5008918;28;19922;-69
2021/10/23 17:22:07;;;;;;;;;;;;;;;10.15;100.00;100263.84;5005888;28;19921;-68
2021/10/23 17:24:33;;;;;;;;;;;;;;;10.19;100.00;100260.38;5013035;28;19922;-68
2021/10/23 17:26:58;;;;;;;;;;;;;;;10.13;100.00;100247.59;5011845;28;20028;-68
2021/10/23 17:29:25;;;;;;;;;;;;;;;10.09;100.00;100257.06;5011221;28;19914;-68
2021/10/23 17:31:50;;;;;;;;;;;;;;;10.13;100.00;100263.03;5012176;28;19921;-69
2021/10/23 17:34:15;;;;;;;;;;;;;;;9.95;100.00;100264.91;5014633;28;19925;-69
2021/10/23 17:36:41;;;;;;;;;;;;;;;9.70;100.00;100263.44;5020987;28;19926;-68
2021/10/23 17:39:07;;;;;;;;;;;;;;;9.64;100.00;100275.44;5021172;28;19924;-68
2021/10/23 17:41:32;;;;;;;;;;;;;;;9.62;100.00;100284.94;5011425;28;19913;-68
2021/10/23 17:43:58;;;;;;;;;;;;;;;9.41;100.00;100290.19;5012087;28;20402;-68
2021/10/23 17:46:24;;;;;;;;;;;;;;;9.07;100.00;100298.09;5005749;28;19930;-69
2021/10/23 17:48:49;;;;;;;;;;;;;;;9.11;100.00;100299.78;5010433;28;20485;-68
2021/10/23 17:51:15;;;;;;;;;;;;;;;9.24;100.00;100297.16;5026633;28;19917;-68
2021/10/23 17:53:40;;;;;;;;;;;;;;;9.42;100.00;100304.78;5010461;28;19925;-68
2021/10/23 17:56:06;;;;;;;;;;;;;;;9.20;100.00;100289.47;5005779;28;19940;-69
2021/10/23 17:58:32;;;;;;;;;;;;;;;9.31;100.00;100291.97;5004991;28;19918;-69
2021/10/23 18:00:57;;;;;;;;;;;;;;;9.28;100.00;100291.97;5006045;28;19948;-68
2021/10/23 18:03:23;;;;;;;;;;;;;;;9.39;100.00;100289.34;5011467;28;19917;-69
2021/10/23 18:05:49;;;;;;;;;;;;;;;9.26;100.00;100293.72;5011587;28;20360;-69
2021/10/23 18:08:14;;;;;;;;;;;;;;;9.11;100.00;100292.09;5012148;28;19924;-69
2021/10/23 18:10:40;;;;;;;;;;;;;;;9.19;100.00;100287.78;5004413;28;19921;-69
2021/10/23 18:13:06;;;;;;;;;;;;;;;9.34;100.00;100298.81;5011697;28;19969;-69
2021/10/23 18:15:42;;;;;;;;;;;;;;;8.25;100.00;100300.03;5004209;28;19985;-69
2021/10/23 18:18:15;;;;;;;;;;;;;;;8.86;100.00;100303.34;5004151;28;20048;-68
2021/10/23 18:20:41;;;;;;;;;;;;;;;9.28;100.00;100298.84;4988040;28;19975;-69
2021/10/23 18:23:07;;;;;;;;;;;;;;;8.33;100.00;100300.91;5028474;27;19924;-68
2021/10/23 18:25:34;;;;;;;;;;;;;;;8.55;100.00;100304.31;5011250;28;20860;-68
2021/10/23 18:28:00;;;;;;;;;;;;;;;8.31;100.00;100307.75;5004292;28;19956;-68
2021/10/23 18:30:25;;;;;;;;;;;;;;;8.32;100.00;100306.88;5005591;28;19913;-69
2021/10/23 18:32:51;;;;;;;;;;;;;;;8.87;100.00;100315.31;4988774;28;20302;-68
2021/10/23 18:35:17;;;;;;;;;;;;;;;8.53;100.00;100305.16;5019192;28;19921;-69
2021/10/23 18:37:44;;;;;;;;;;;;;;;8.69;100.00;100308.53;5012385;28;19952;-68
2021/10/23 18:40:09;;;;;;;;;;;;;;;8.61;100.00;100307.72;5022450;28;20417;-69
2021/10/23 18:42:35;;;;;;;;;;;;;;;8.85;100.00;100307.63;5044398;28;19961;-65
2021/10/23 18:45:00;;;;;;;;;;;;;;;8.72;100.00;100301.69;4996419;28;19928;-65
2021/10/23 18:47:30;;;;;;;;;;;;;;;8.86;100.00;100300.78;5021839;28;20382;-65
2021/10/23 18:49:56;;;;;;;;;;;;;;;8.91;100.00;100301.59;5008017;28;20000;-65
2021/10/23 18:52:21;;;;;;;;;;;;;;;9.01;100.00;100300.72;5022766;28;19929;-66
2021/10/23 18:54:46;;;;;;;;;;;;;;;8.92;100.00;100295.63;5016986;28;20008;-65
2021/10/23 18:57:12;;;;;;;;;;;;;;;8.55;100.00;100295.72;5033032;28;19917;-65
2021/10/23 18:59:37;;;;;;;;;;;;;;;8.33;100.00;100303.47;5031652;28;20451;-65
2021/10/23 19:02:04;;;;;;;;;;;;;;;8.61;100.00;100300.00;5048400;28;19961;-65
2021/10/23 19:04:29;;;;;;;;;;;;;;;8.73;100.00;100292.25;5001727;28;20496;-68
2021/10/23 19:06:55;;;;;;;;;;;;;;;8.47;100.00;100289.78;5006947;28;19932;-68
2021/10/23 19:09:20;;;;;;;;;;;;;;;8.37;100.00;100294.91;5011061;28;19928;-68
2021/10/23 19:11:46;;;;;;;;;;;;;;;8.60;100.00;100291.47;5005687;28;19928;-68
2021/10/23 19:14:11;;;;;;;;;;;;;;;8.58;100.00;100282.91;5007238;28;19918;-68
2021/10/23 19:16:36;;;;;;;;;;;;;;;8.52;100.00;100282.91;5016259;28;20004;-65
2021/10/23 19:19:02;;;;;;;;;;;;;;;8.47;100.00;100279.50;5029982;28;20283;-65
2021/10/23 19:21:27;;;;;;;;;;;;;;;8.52;100.00;100277.78;5012160;28;20439;-65
2021/10/23 19:23:53;;;;;;;;;;;;;;;8.50;100.00;100279.50;5017199;28;19925;-65
2021/10/23 19:26:18;;;;;;;;;;;;;;;8.46;100.00;100282.94;5022663;28;19948;-65
2021/10/23 19:28:45;;;;;;;;;;;;;;;8.47;100.00;100279.50;5009453;28;19924;-65
2021/10/23 19:31:10;;;;;;;;;;;;;;;8.33;100.00;100282.94;5012270;28;20298;-65
2021/10/23 19:33:36;;;;;;;;;;;;;;;8.11;100.00;100282.09;5005462;28;19913;-65
2021/10/23 19:36:02;;;;;;;;;;;;;;;7.94;100.00;100283.84;5005875;28;19921;-67
2021/10/23 19:38:27;;;;;;;;;;;;;;;8.13;100.00;100292.38;5008938;28;19971;-67
2021/10/23 19:40:53;;;;;;;;;;;;;;;8.15;100.00;100290.66;5007387;28;19966;-67
2021/10/23 19:43:18;;;;;;;;;;;;;;;8.28;100.00;100289.81;5008576;28;20008;-67
2021/10/23 19:45:44;;;;;;;;;;;;;;;8.12;100.00;100288.97;5008267;28;20335;-67
2021/10/23 19:48:09;;;;;;;;;;;;;;;8.01;100.00;100300.09;5008203;28;20440;-67
2021/10/23 19:50:35;;;;;;;;;;;;;;;7.86;100.00;100299.22;5008268;28;20275;-67
2021/10/23 19:53:00;;;;;;;;;;;;;;;7.95;100.00;100294.09;5008182;28;19966;-67
2021/10/23 19:55:26;;;;;;;;;;;;;;;8.32;100.00;100296.59;5013318;28;19929;-64
2021/10/23 19:57:51;;;;;;;;;;;;;;;8.35;100.00;100295.78;5019311;28;19925;-65
2021/10/23 20:00:16;;;;;;;;;;;;;;;7.97;100.00;100299.22;5033907;28;19913;-65
2021/10/23 20:02:42;;;;;;;;;;;;;;;8.09;100.00;100295.78;5021719;28;19920;-65
2021/10/23 20:05:07;;;;;;;;;;;;;;;8.03;100.00;100303.50;5017964;28;20065;-65
2021/10/23 20:07:33;;;;;;;;;;;;;;;7.69;100.00;100303.53;5031670;28;19966;-65
2021/10/23 20:09:58;;;;;;;;;;;;;;;7.92;100.00;100309.50;5016975;28;19917;-65
2021/10/23 20:12:24;;;;;;;;;;;;;;;7.49;100.00;100311.19;5029541;28;19917;-65
2021/10/23 20:14:49;;;;;;;;;;;;;;;7.29;100.00;100322.22;5016006;28;19917;-65
2021/10/23 20:17:15;;;;;;;;;;;;;;;7.41;100.00;100324.00;5046187;27;20387;-65
2021/10/23 20:19:40;;;;;;;;;;;;;;;7.59;100.00;100323.13;5016629;28;19956;-65
2021/10/23 20:22:06;;;;;;;;;;;;;;;7.43;100.00;100319.69;5014783;28;20374;-65
2021/10/23 20:24:32;;;;;;;;;;;;;;;7.15;100.00;100321.34;5015347;28;19921;-65
2021/10/23 20:26:59;;;;;;;;;;;;;;;7.29;100.00;100331.63;5012489;28;19917;-65
2021/10/23 20:29:25;;;;;;;;;;;;;;;7.20;100.00;100331.59;5019901;28;19917;-65
2021/10/23 20:31:50;;;;;;;;;;;;;;;7.20;100.00;100332.44;5015865;28;19925;-68
2021/10/23 20:34:16;;;;;;;;;;;;;;;7.53;100.00;100334.25;5011728;28;19962;-65
2021/10/23 20:36:41;;;;;;;;;;;;;;;7.72;100.00;100318.91;5033304;28;20343;-65
2021/10/23 20:39:08;;;;;;;;;;;;;;;7.65;100.00;100324.88;5030529;28;19918;-65
2021/10/23 20:41:35;;;;;;;;;;;;;;;7.79;100.00;100323.16;5009660;28;19943;-65
2021/10/23 20:44:00;;;;;;;;;;;;;;;7.60;100.00;100324.03;5020302;28;20328;-65
2021/10/23 20:46:26;;;;;;;;;;;;;;;7.32;100.00;100319.69;5018504;28;19917;-68
2021/10/23 20:48:53;;;;;;;;;;;;;;;7.62;100.00;100318.03;5011262;28;19920;-68
2021/10/23 20:51:21;;;;;;;;;;;;;;;7.58;100.00;100315.47;4989686;28;19925;-67
2021/10/23 20:53:47;;;;;;;;;;;;;;;7.68;100.00;100312.03;5005520;28;20297;-67
2021/10/23 20:56:12;;;;;;;;;;;;;;;7.72;100.00;100303.50;5023051;28;20003;-68
2021/10/23 20:58:38;;;;;;;;;;;;;;;7.61;100.00;100305.22;5005856;28;19921;-68
2021/10/23 21:01:03;;;;;;;;;;;;;;;7.71;100.00;100312.06;5006775;28;19978;-68
2021/10/23 21:03:28;;;;;;;;;;;;;;;7.54;100.00;100310.31;5011669;28;19925;-68
2021/10/23 21:05:55;;;;;;;;;;;;;;;7.38;100.00;100318.00;5020993;28;19918;-67
2021/10/23 21:08:21;;;;;;;;;;;;;;;7.59;100.00;100322.28;5011409;28;19922;-68
2021/10/23 21:10:46;;;;;;;;;;;;;;;7.75;100.00;100313.75;5014442;28;19921;-68
2021/10/23 21:13:12;;;;;;;;;;;;;;;7.45;100.00;100315.44;5005675;28;19928;-67
2021/10/23 21:15:37;;;;;;;;;;;;;;;7.58;100.00;100315.47;5022028;28;19925;-67
2021/10/23 21:18:04;;;;;;;;;;;;;;;7.19;100.00;100317.09;5008656;28;20746;-67
2021/10/23 21:20:29;;;;;;;;;;;;;;;7.48;100.00;100330.84;5020862;28;19921;-67
2021/10/23 21:22:55;;;;;;;;;;;;;;;7.49;100.00;100322.28;5025145;28;19917;-65
2021/10/23 21:25:20;;;;;;;;;;;;;;;7.64;100.00;100321.47;5030088;28;19913;-68
2021/10/23 21:27:45;;;;;;;;;;;;;;;7.31;100.00;100322.25;5004340;28;19960;-68
2021/10/23 21:30:11;;;;;;;;;;;;;;;6.96;100.00;100315.31;5011868;28;19928;-68
2021/10/23 21:32:36;;;;;;;;;;;;;;;6.83;100.00;100316.94;5019353;28;19929;-68
2021/10/23 21:35:02;;;;;;;;;;;;;;;7.11;100.00;100325.59;5020587;28;19933;-68